Meteo Giornale » Osservazioni meteo Stati Uniti (USA) » Pullman-Moscow
ore: 11:53 - Osservazioni Meteo Pullman-Moscow
Lat. 46° 44' N Lon. 117° 6' W Alt. 779 metri s.l.m.
24 °C
Foschia
Temp. 24 Ore
16 °C
28 °C
Est/Sud-Est
9.3 Km/h
Dew point 3 °C
Umidità 25 %
Visibilità 10 Km
Il sole sorge alle ore 06:08
Il sole tramonta alle ore 19:27
| Data e Ora | Cielo e Fenomeni | T °C | DP °C | Um. % | Pres. hPa | Vis. km | Vento km/h | |
|---|---|---|---|---|---|---|---|---|
| Oggi h: 11:53 | Foschia | 24 | 3 | 25 | 1009 | 10 | E/SE 9.3 | |
| Oggi h: 10:53 | Foschia | 23 | 4 | 28 | 1009 | 8 | O/SO 7.4 | |
| Oggi h: 09:53 | Foschia | 24 | 4 | 27 | 1009 | 10 | E/SE 13 | |
| Oggi h: 08:53 | Foschia | 23 | 4 | 28 | 1008 | 10 | E/SE 14.8 | |
| Oggi h: 07:53 | Sereno | 20 | 3 | 32 | 1008 | 14 | E/SE 18.5 | |
| Oggi h: 06:53 | Sereno | 19 | 3 | 34 | 1008 | 13 | E 18.5 | |
| Oggi h: 05:53 | Sereno | 18 | 3 | 36 | 1008 | 10 | E/SE 16.7 | |
| Oggi h: 04:53 | Sereno | 17 | 2 | 36 | 1009 | 10 | E 11.1 | |
| Oggi h: 03:53 | Sereno | 17 | 2 | 36 | 1009 | 10 | E 16.7 | |
| Oggi h: 02:53 | Sereno | 17 | 2 | 36 | 1009 | 10 | N 5.5 | |
| Oggi h: 01:53 | Sereno | 17 | 2 | 36 | 1009 | 10 | N 5.5 | |
| Oggi h: 00:53 | Sereno | 17 | 2 | 36 | 1009 | 10 | N 5.5 | |
| Ieri h: 23:53 | Sereno | 16 | 1 | 36 | 1009 | 10 | N 0 | |
| Ieri h: 22:53 | Sereno | 17 | 0 | 31 | 1010 | 10 | N 0 | |
| Ieri h: 21:53 | Sereno | 17 | 0 | 31 | 1010 | 14 | N 0 | |
| Ieri h: 20:53 | Sereno | 18 | -1 | 27 | 1011 | 13 | N 5.5 | |
| Ieri h: 19:53 | Sereno | 20 | -1 | 24 | 1010 | 11 | N 0 | |
| Ieri h: 19:14 | Sereno | 24 | 0 | 20 | 1010 | 11 | N 9.3 | |
| Ieri h: 19:06 | Foschia | 24 | 0 | 20 | 1010 | 3 | N 11.1 | |
| Ieri h: 18:53 | Foschia | 26 | 0 | 18 | 1011 | 5 | N 7.4 | |
| Ieri h: 18:39 | Foschia | 26 | 0 | 18 | 1011 | 5 | N/NO 7.4 | |
| Ieri h: 17:53 | Sereno | 28 | 1 | 17 | 1011 | 14 | N 5.5 | |
| Ieri h: 16:53 | Sereno | 28 | 1 | 17 | 1012 | 14 | N 7.4 | |
| Ieri h: 15:53 | Sereno | 28 | 1 | 17 | 1012 | 14 | N 0 | |
| Ieri h: 14:53 | Sereno | 27 | 1 | 18 | 1013 | 10 | N 5.5 | |
| Ieri h: 13:53 | Sereno | 26 | 1 | 19 | 1014 | 13 | N 0 | |
| Ieri h: 12:53 | Sereno | 24 | 0 | 20 | 1015 | 13 | N 0 | |



